Time;durP1;ratioP1;P1;durP2;ratioP2;P2;SDS_P1;SDS_P2;PMS_P1;PMS_P2;Temp;Humidity;BMP_temperature;BMP_pressure;BME280_temperature;BME280_humidity;BME280_pressure;Samples;Min_cycle;Max_cycle;Signal;HPM_P1;HPM_P2
2022/07/08 00:01:07;;;;;;;1.52;1.10;;;;;;;;;;6246371;23;20180;-90
2022/07/08 00:03:39;;;;;;;1.67;1.38;;;;;;;;;;6246326;23;20219;-90
2022/07/08 00:06:06;;;;;;;1.50;1.17;;;;;;;;;;6245542;23;20192;-91
2022/07/08 00:08:36;;;;;;;2.60;1.20;;;;;;;;;;6246124;22;20173;-90
2022/07/08 00:11:03;;;;;;;1.50;1.27;;;;;;;;;;6246295;22;20176;-90
2022/07/08 00:13:30;;;;;;;2.38;1.15;;;;;;;;;;6246347;22;20195;-91
2022/07/08 00:15:57;;;;;;;1.67;1.40;;;;;;;;;;6245154;22;20200;-90
2022/07/08 00:18:25;;;;;;;1.52;1.10;;;;;;;;;;6245968;22;20180;-91
2022/07/08 00:20:52;;;;;;;1.38;1.00;;;;;;;;;;6246064;22;20172;-91
2022/07/08 00:23:19;;;;;;;1.20;1.00;;;;;;;;;;6246329;22;20173;-90
2022/07/08 00:25:48;;;;;;;2.80;1.38;;;;;;;;;;6245216;22;20208;-90
2022/07/08 00:28:16;;;;;;;1.88;1.10;;;;;;;;;;6245804;23;20177;-89
2022/07/08 00:30:43;;;;;;;1.65;1.15;;;;;;;;;;6246401;23;20200;-91
2022/07/08 00:33:10;;;;;;;1.42;1.30;;;;;;;;;;6245825;22;20522;-91
2022/07/08 00:35:38;;;;;;;2.53;1.17;;;;;;;;;;6245446;22;20193;-89
2022/07/08 00:38:05;;;;;;;2.00;1.40;;;;;;;;;;6245847;22;20192;-90
2022/07/08 00:40:34;;;;;;;1.75;1.20;;;;;;;;;;6245793;22;20204;-91
2022/07/08 00:43:02;;;;;;;1.83;1.17;;;;;;;;;;6245864;22;20172;-89
2022/07/08 00:45:31;;;;;;;2.88;1.38;;;;;;;;;;6245524;22;20193;-88
2022/07/08 00:47:58;;;;;;;1.92;1.20;;;;;;;;;;6245570;22;20192;-90
2022/07/08 00:50:25;;;;;;;1.55;1.30;;;;;;;;;;6245721;22;20199;-91
2022/07/08 00:52:53;;;;;;;1.73;1.20;;;;;;;;;;6245722;22;20176;-87
2022/07/08 00:55:20;;;;;;;1.48;1.38;;;;;;;;;;6246084;23;20193;-90
2022/07/08 00:57:47;;;;;;;1.60;1.20;;;;;;;;;;6245368;22;20214;-90
2022/07/08 01:00:17;;;;;;;2.35;1.20;;;;;;;;;;6245275;22;20172;-91
2022/07/08 01:02:44;;;;;;;1.90;1.40;;;;;;;;;;6245627;22;20203;-90
2022/07/08 01:05:11;;;;;;;2.63;1.48;;;;;;;;;;6245457;23;20193;-88
2022/07/08 01:07:38;;;;;;;1.45;1.20;;;;;;;;;;6245428;22;20169;-90
2022/07/08 01:10:06;;;;;;;1.80;1.35;;;;;;;;;;6245910;22;20180;-90
2022/07/08 04:42:52;;;;;;;3.90;1.50;;;;;;;;;;6227515;23;20260;-90
2022/07/08 05:01:17;;;;;;;16.85;5.80;;;;;;;;;;6236579;22;20199;-89
2022/07/08 05:03:59;;;;;;;1999.90;999.90;;;;;;;;;;6265255;22;20294;-88
2022/07/08 05:09:40;;;;;;;1617.28;475.20;;;;;;;;;;6277154;22;20139;-89
2022/07/08 05:12:27;;;;;;;1244.32;370.10;;;;;;;;;;6276574;22;20168;-88
2022/07/08 05:15:15;;;;;;;913.30;282.73;;;;;;;;;;6276815;22;20171;-89
2022/07/08 05:17:44;;;;;;;677.20;206.63;;;;;;;;;;6276249;22;20215;-89
2022/07/08 05:20:12;;;;;;;607.88;183.80;;;;;;;;;;6277134;22;20202;-88
2022/07/08 05:22:40;;;;;;;507.83;145.73;;;;;;;;;;6276206;22;20211;-87
2022/07/08 05:25:07;;;;;;;395.77;114.50;;;;;;;;;;6275411;22;20171;-89
2022/07/08 05:33:36;;;;;;;217.85;66.55;;;;;;;;;;6261458;22;20245;-87
2022/07/08 05:36:53;;;;;;;214.50;61.33;;;;;;;;;;6276558;22;20172;-88
2022/07/08 05:39:21;;;;;;;193.32;55.92;;;;;;;;;;6276821;22;20179;-88
2022/07/08 05:41:48;;;;;;;171.13;49.58;;;;;;;;;;6276297;22;20176;-88
2022/07/08 05:44:17;;;;;;;142.65;45.22;;;;;;;;;;6276518;22;20275;-89
2022/07/08 05:46:47;;;;;;;128.20;40.92;;;;;;;;;;6275984;22;20167;-89
2022/07/08 05:49:16;;;;;;;126.65;38.75;;;;;;;;;;6275902;22;20176;-88
2022/07/08 05:51:49;;;;;;;108.80;35.15;;;;;;;;;;6276518;22;20172;-88
2022/07/08 05:54:29;;;;;;;101.80;33.33;;;;;;;;;;6276609;22;20218;-88
2022/07/08 05:57:05;;;;;;;97.40;31.25;;;;;;;;;;6276235;22;20183;-89
2022/07/08 05:59:33;;;;;;;92.07;29.50;;;;;;;;;;6276920;22;20164;-90
2022/07/08 06:04:43;;;;;;;73.22;25.15;;;;;;;;;;6274151;22;20230;-89
2022/07/08 06:07:16;;;;;;;71.15;25.02;;;;;;;;;;6276022;22;20168;-89
2022/07/08 06:09:47;;;;;;;80.82;25.25;;;;;;;;;;6276601;22;20164;-89
2022/07/08 06:25:50;;;;;;;55.65;19.25;;;;;;;;;;6274522;22;20182;-93
2022/07/08 06:28:22;;;;;;;47.83;18.52;;;;;;;;;;6275529;22;20186;-88
2022/07/08 07:13:48;;;;;;;26.23;10.70;;;;;;;;;;6247376;22;20210;-87
2022/07/08 07:16:22;;;;;;;26.67;10.80;;;;;;;;;;6274907;22;20175;-90
2022/07/08 07:18:49;;;;;;;27.25;10.65;;;;;;;;;;6275906;22;20542;-91
2022/07/08 07:21:16;;;;;;;31.73;11.95;;;;;;;;;;6275697;22;20172;-91
2022/07/08 07:23:45;;;;;;;25.23;10.30;;;;;;;;;;6275306;22;20242;-89
2022/07/08 07:26:16;;;;;;;23.63;10.02;;;;;;;;;;6277167;22;20168;-90
2022/07/08 07:28:45;;;;;;;20.58;9.57;;;;;;;;;;6277150;22;20646;-89
2022/07/08 07:31:16;;;;;;;23.23;9.38;;;;;;;;;;6277492;22;20182;-87
2022/07/08 07:33:44;;;;;;;20.40;9.10;;;;;;;;;;6278426;22;20209;-88
2022/07/08 07:36:11;;;;;;;27.10;9.75;;;;;;;;;;6278564;22;20171;-89
2022/07/08 07:38:39;;;;;;;21.92;9.13;;;;;;;;;;6277880;22;20198;-87
2022/07/08 07:41:12;;;;;;;21.20;8.95;;;;;;;;;;6276921;22;20175;-90
2022/07/08 07:43:39;;;;;;;21.65;9.15;;;;;;;;;;6276432;22;20241;-90
2022/07/08 07:46:07;;;;;;;22.45;9.13;;;;;;;;;;6276989;22;20172;-89
2022/07/08 07:48:37;;;;;;;21.67;8.88;;;;;;;;;;6277189;22;20170;-89
2022/07/08 07:51:05;;;;;;;18.70;8.00;;;;;;;;;;6276594;22;20636;-89
2022/07/08 07:53:32;;;;;;;21.25;8.15;;;;;;;;;;6275293;22;20668;-90
2022/07/08 07:55:59;;;;;;;20.42;8.52;;;;;;;;;;6275049;22;20176;-88
2022/07/08 07:58:28;;;;;;;17.80;8.05;;;;;;;;;;6275564;22;20184;-89
2022/07/08 08:00:56;;;;;;;19.23;8.07;;;;;;;;;;6275251;22;20175;-89
2022/07/08 08:03:25;;;;;;;18.17;7.85;;;;;;;;;;6275402;22;20188;-90
2022/07/08 08:05:53;;;;;;;17.90;7.40;;;;;;;;;;6275004;22;20173;-90
2022/07/08 08:08:21;;;;;;;17.33;7.55;;;;;;;;;;6275715;22;20171;-91
2022/07/08 08:10:48;;;;;;;16.67;7.15;;;;;;;;;;6276183;22;20172;-90
2022/07/08 08:13:16;;;;;;;15.95;7.28;;;;;;;;;;6276805;22;20195;-87
2022/07/08 08:15:45;;;;;;;14.65;7.25;;;;;;;;;;6277549;22;20190;-89
2022/07/08 08:18:14;;;;;;;15.23;6.78;;;;;;;;;;6279249;22;20168;-90
2022/07/08 08:20:48;;;;;;;16.38;6.88;;;;;;;;;;6277899;22;20178;-88
2022/07/08 08:23:18;;;;;;;13.50;6.38;;;;;;;;;;6277913;22;20222;-90
2022/07/08 08:25:47;;;;;;;13.30;6.50;;;;;;;;;;6278853;22;20198;-89
2022/07/08 08:28:24;;;;;;;13.38;6.25;;;;;;;;;;6278617;22;20191;-89
2022/07/08 08:30:57;;;;;;;13.88;6.18;;;;;;;;;;6280849;22;20643;-90
2022/07/08 08:33:24;;;;;;;14.07;6.43;;;;;;;;;;6285935;22;20217;-89
2022/07/08 08:35:54;;;;;;;14.70;6.55;;;;;;;;;;6287028;22;20171;-91
2022/07/08 08:38:21;;;;;;;10.75;5.88;;;;;;;;;;6279715;22;20207;-91
2022/07/08 08:40:49;;;;;;;14.63;6.30;;;;;;;;;;6279812;22;20172;-88
2022/07/08 08:43:19;;;;;;;10.25;5.63;;;;;;;;;;6278072;22;20263;-90
2022/07/08 08:45:46;;;;;;;13.45;5.97;;;;;;;;;;6277312;22;20176;-88
2022/07/08 08:48:16;;;;;;;12.55;5.82;;;;;;;;;;6278185;22;20170;-88
2022/07/08 08:53:28;;;;;;;9.60;5.28;;;;;;;;;;6274764;22;20648;-89
2022/07/08 08:55:56;;;;;;;10.90;5.22;;;;;;;;;;6277126;22;20186;-90
2022/07/08 08:58:24;;;;;;;12.50;5.47;;;;;;;;;;6277779;22;20188;-90
2022/07/08 09:00:51;;;;;;;9.90;5.07;;;;;;;;;;6278116;22;20172;-88
2022/07/08 09:03:20;;;;;;;10.32;5.07;;;;;;;;;;6275848;22;20524;-90
2022/07/08 09:05:49;;;;;;;10.80;5.40;;;;;;;;;;6276468;22;20280;-89
2022/07/08 09:08:19;;;;;;;10.40;5.03;;;;;;;;;;6277161;22;20164;-90
2022/07/08 09:10:46;;;;;;;9.40;5.03;;;;;;;;;;6276922;22;20172;-89
2022/07/08 09:13:15;;;;;;;8.70;4.60;;;;;;;;;;6276669;22;20233;-90
2022/07/08 09:15:43;;;;;;;10.20;4.40;;;;;;;;;;6277483;22;20166;-88
2022/07/08 09:18:11;;;;;;;10.30;4.72;;;;;;;;;;6276954;22;20246;-89
2022/07/08 09:20:44;;;;;;;9.15;4.22;;;;;;;;;;6277496;22;20187;-89
2022/07/08 09:23:13;;;;;;;9.07;4.72;;;;;;;;;;6276442;22;20172;-87
2022/07/08 09:25:41;;;;;;;7.90;4.60;;;;;;;;;;6276345;22;20278;-88
2022/07/08 09:28:09;;;;;;;10.75;4.75;;;;;;;;;;6276359;22;20186;-91
2022/07/08 09:30:36;;;;;;;8.95;4.10;;;;;;;;;;6277233;22;20179;-87
2022/07/08 09:33:06;;;;;;;7.78;4.25;;;;;;;;;;6276642;22;20198;-88
2022/07/08 09:35:48;;;;;;;9.82;4.50;;;;;;;;;;6277057;22;20164;-88
2022/07/08 09:38:34;;;;;;;8.98;4.18;;;;;;;;;;6276849;22;20184;-89
2022/07/08 09:41:05;;;;;;;9.18;4.07;;;;;;;;;;6276498;22;20245;-88
2022/07/08 09:43:33;;;;;;;7.60;4.00;;;;;;;;;;6276586;22;20192;-88
2022/07/08 09:46:04;;;;;;;11.73;5.25;;;;;;;;;;6276696;22;20750;-88
2022/07/08 09:48:31;;;;;;;31.42;9.93;;;;;;;;;;6276935;22;20252;-86
2022/07/08 09:51:00;;;;;;;30.45;11.25;;;;;;;;;;6276550;22;20203;-87
2022/07/08 09:53:46;;;;;;;33.63;12.48;;;;;;;;;;6276820;22;20191;-88
2022/07/08 09:56:16;;;;;;;44.45;15.00;;;;;;;;;;6275944;22;20171;-87
2022/07/08 09:58:44;;;;;;;53.00;15.90;;;;;;;;;;6279151;22;20188;-88
2022/07/08 10:01:12;;;;;;;53.67;16.55;;;;;;;;;;6278569;22;20172;-88
2022/07/08 10:03:39;;;;;;;53.63;15.95;;;;;;;;;;6277012;22;20206;-89
2022/07/08 10:06:13;;;;;;;47.70;15.27;;;;;;;;;;6278185;22;20195;-87
2022/07/08 10:08:40;;;;;;;75.22;29.60;;;;;;;;;;6277153;22;20172;-88
2022/07/08 10:13:55;;;;;;;138.30;59.38;;;;;;;;;;6275546;22;20267;-88
2022/07/08 10:16:22;;;;;;;145.73;75.30;;;;;;;;;;6276149;22;20209;-88
2022/07/08 10:18:55;;;;;;;143.60;72.72;;;;;;;;;;6276054;22;20191;-88
2022/07/08 10:21:32;;;;;;;233.82;117.57;;;;;;;;;;6276965;22;20623;-88
2022/07/08 10:24:02;;;;;;;244.50;142.82;;;;;;;;;;6277324;22;20195;-88
2022/07/08 10:26:32;;;;;;;215.68;130.27;;;;;;;;;;6276565;22;20184;-86
2022/07/08 10:31:56;;;;;;;139.50;81.53;;;;;;;;;;6274547;22;20179;-87
2022/07/08 10:34:31;;;;;;;124.95;72.70;;;;;;;;;;6275365;22;20200;-88
2022/07/08 10:37:04;;;;;;;121.20;67.65;;;;;;;;;;6276407;22;20178;-89
2022/07/08 10:39:43;;;;;;;110.65;62.38;;;;;;;;;;6275998;22;20192;-88
2022/07/08 10:45:18;;;;;;;102.85;56.65;;;;;;;;;;6275616;22;20195;-89
2022/07/08 10:48:09;;;;;;;93.80;53.33;;;;;;;;;;6275882;22;20164;-88
2022/07/08 10:50:39;;;;;;;79.82;46.28;;;;;;;;;;6276276;22;20172;-89
2022/07/08 10:53:12;;;;;;;56.53;35.33;;;;;;;;;;6275321;22;20168;-89
2022/07/08 11:05:26;;;;;;;38.33;22.42;;;;;;;;;;6186413;22;20244;-89
2022/07/08 11:20:21;;;;;;;28.05;16.02;;;;;;;;;;6094780;23;20210;-90
2022/07/08 11:23:21;;;;;;;;;;;;;;;;;;;;;
2022/07/08 11:35:13;;;;;;;18.10;9.85;;;;;;;;;;6275561;22;20195;-90
2022/07/08 11:37:54;;;;;;;14.50;9.73;;;;;;;;;;6122615;23;20175;-88
2022/07/08 11:40:22;;;;;;;14.77;9.48;;;;;;;;;;6123717;23;20175;-89
2022/07/08 12:01:20;;;;;;;;;;;;;;;;;;;;;
2022/07/08 12:04:27;;;;;;;11.80;7.00;;;;;;;;;;6287794;22;20192;-90
2022/07/08 12:07:20;;;;;;;11.73;6.65;;;;;;;;;;6278943;22;20253;-91
2022/07/08 12:13:01;;;;;;;9.30;5.97;;;;;;;;;;6173830;23;20174;-86
2022/07/08 12:15:38;;;;;;;9.18;6.15;;;;;;;;;;6183405;23;20170;-88
2022/07/08 12:18:28;;;;;;;10.77;6.20;;;;;;;;;;6184081;23;20261;-88
2022/07/08 12:20:55;;;;;;;8.93;5.93;;;;;;;;;;6183506;23;20185;-88
2022/07/08 12:23:45;;;;;;;10.23;5.72;;;;;;;;;;6182564;23;20190;-86
2022/07/08 12:26:16;;;;;;;9.00;5.97;;;;;;;;;;6182522;23;20249;-88
2022/07/08 12:28:52;;;;;;;8.65;5.65;;;;;;;;;;6183318;23;20162;-88
2022/07/08 12:31:52;;;;;;;8.48;5.78;;;;;;;;;;6183400;23;20174;-88
2022/07/08 12:34:24;;;;;;;9.25;5.72;;;;;;;;;;6093772;23;20241;-88
2022/07/08 12:36:57;;;;;;;9.52;5.32;;;;;;;;;;6166874;23;20256;-86
2022/07/08 12:39:29;;;;;;;9.77;5.38;;;;;;;;;;6182954;23;20236;-88
2022/07/08 12:42:01;;;;;;;8.00;5.47;;;;;;;;;;6183478;23;20245;-86
2022/07/08 12:44:40;;;;;;;8.50;5.60;;;;;;;;;;6184392;23;20200;-88
2022/07/08 12:47:22;;;;;;;7.80;5.10;;;;;;;;;;6184334;23;20274;-87
2022/07/08 12:50:18;;;;;;;7.90;5.25;;;;;;;;;;6240287;22;20168;-87
2022/07/08 12:52:51;;;;;;;8.98;5.22;;;;;;;;;;6269492;22;20172;-88
2022/07/08 12:55:18;;;;;;;7.47;5.28;;;;;;;;;;6276933;22;20270;-86
2022/07/08 12:57:48;;;;;;;8.38;5.13;;;;;;;;;;6276475;22;20179;-87
2022/07/08 13:00:31;;;;;;;8.20;5.00;;;;;;;;;;6274883;22;20187;-88
2022/07/08 13:03:09;;;;;;;9.20;5.10;;;;;;;;;;6276538;22;20160;-87
2022/07/08 13:05:41;;;;;;;8.63;4.95;;;;;;;;;;6276436;22;20168;-86
2022/07/08 13:08:12;;;;;;;8.18;5.13;;;;;;;;;;6277529;22;20168;-87
2022/07/08 13:10:49;;;;;;;7.18;4.68;;;;;;;;;;6276511;22;20180;-87
2022/07/08 13:13:27;;;;;;;7.15;4.57;;;;;;;;;;6277202;22;20202;-87
2022/07/08 13:16:14;;;;;;;8.38;4.80;;;;;;;;;;6276936;22;20176;-88
2022/07/08 13:24:16;;;;;;;7.85;4.80;;;;;;;;;;6271738;22;20195;-89
2022/07/08 13:27:24;;;;;;;;;;;;;;;;;;;;;
2022/07/08 13:32:52;;;;;;;6.78;3.97;;;;;;;;;;6213386;23;20192;-89
2022/07/08 13:38:38;;;;;;;6.30;3.97;;;;;;;;;;6249136;22;20226;-89
2022/07/08 13:47:04;;;;;;;5.60;3.45;;;;;;;;;;6244374;23;20207;-89
2022/07/08 13:49:36;;;;;;;4.90;3.25;;;;;;;;;;6246170;23;20172;-90
2022/07/08 13:52:06;;;;;;;5.57;3.30;;;;;;;;;;6245947;23;20193;-90
2022/07/08 13:54:40;;;;;;;7.10;3.60;;;;;;;;;;6246567;23;20197;-89
2022/07/08 13:57:27;;;;;;;5.13;2.85;;;;;;;;;;6246437;23;20168;-90
2022/07/08 14:02:56;;;;;;;5.50;3.15;;;;;;;;;;6237848;23;20172;-89
2022/07/08 14:05:47;;;;;;;4.13;2.72;;;;;;;;;;6245657;23;20256;-88
2022/07/08 14:08:24;;;;;;;4.25;2.42;;;;;;;;;;6243829;23;20180;-89
2022/07/08 15:31:20;;;;;;;3.33;1.40;;;;;;;;;;6059149;23;20172;-87
2022/07/08 15:36:47;;;;;;;1.88;1.30;;;;;;;;;;6065512;23;20184;-84
2022/07/08 15:39:21;;;;;;;2.78;1.70;;;;;;;;;;6067838;23;20271;-85
2022/07/08 15:41:56;;;;;;;2.38;1.48;;;;;;;;;;6068042;23;20223;-84
2022/07/08 15:44:36;;;;;;;1.60;1.02;;;;;;;;;;6067098;23;20168;-83
2022/07/08 15:47:10;;;;;;;2.05;1.10;;;;;;;;;;6067622;23;20169;-84
2022/07/08 15:49:56;;;;;;;1.25;1.00;;;;;;;;;;6095922;23;20199;-84
2022/07/08 15:52:27;;;;;;;3.58;1.38;;;;;;;;;;6124921;23;20198;-84
2022/07/08 15:55:04;;;;;;;1.27;1.10;;;;;;;;;;6126518;23;20196;-84
2022/07/08 15:57:42;;;;;;;2.42;1.25;;;;;;;;;;6125845;23;20171;-84
2022/07/08 16:00:16;;;;;;;1.38;1.08;;;;;;;;;;6125521;23;20262;-84
2022/07/08 16:02:50;;;;;;;1.98;1.10;;;;;;;;;;6199883;22;20203;-84
2022/07/08 16:05:36;;;;;;;2.10;1.10;;;;;;;;;;6249067;22;20179;-89
2022/07/08 16:08:13;;;;;;;1.88;1.20;;;;;;;;;;6245484;22;20200;-84
2022/07/08 16:13:23;;;;;;;1.65;1.15;;;;;;;;;;6217828;23;20196;-85
2022/07/08 16:15:55;;;;;;;1.65;1.23;;;;;;;;;;6245300;22;20176;-85
2022/07/08 16:21:42;;;;;;;3.65;1.40;;;;;;;;;;6243340;22;20173;-84
2022/07/08 16:24:30;;;;;;;;;;;;;;;;;;;;;
2022/07/08 16:27:15;;;;;;;2.55;1.25;;;;;;;;;;6244853;23;20169;-85
2022/07/08 16:30:27;;;;;;;3.97;1.25;;;;;;;;;;6244591;23;20171;-88
2022/07/08 16:33:14;;;;;;;4.47;1.20;;;;;;;;;;6103425;23;20219;-88
2022/07/08 19:25:48;;;;;;;3.58;1.60;;;;;;;;;;6245885;22;20200;-87
2022/07/08 19:29:12;;;;;;;;;;;;;;;;;;;;;
2022/07/08 21:24:36;;;;;;;3.45;1.95;;;;;;;;;;6306229;22;20197;-91
2022/07/08 21:33:45;;;;;;;;;;;;;;;;;;;;;
2022/07/08 21:36:24;;;;;;;2.78;2.00;;;;;;;;;;6275843;22;20258;-90
2022/07/08 21:41:41;;;;;;;3.00;2.28;;;;;;;;;;6302540;22;20171;-90
2022/07/08 21:44:20;;;;;;;4.22;2.10;;;;;;;;;;6306840;22;20200;-88
2022/07/08 22:05:28;;;;;;;;;;;;;;;;;;;;;
2022/07/08 22:14:49;;;;;;;2.25;2.05;;;;;;;;;;6123162;23;20191;-91
2022/07/08 22:33:01;;;;;;;2.63;2.22;;;;;;;;;;6022886;23;20237;-90
2022/07/08 22:35:56;;;;;;;5.20;3.55;;;;;;;;;;6151290;23;20214;-90
2022/07/08 22:38:39;;;;;;;3.70;2.50;;;;;;;;;;6151136;23;20358;-90
2022/07/08 22:51:10;;;;;;;2.45;2.10;;;;;;;;;;6126396;23;20171;-90
2022/07/08 23:09:00;;;;;;;3.75;2.38;;;;;;;;;;6274788;22;20167;-90
2022/07/08 23:17:46;;;;;;;3.10;2.33;;;;;;;;;;6222962;22;20179;-90
